This is the latest recevied weather packets stored in our database for station/object KY4EF. If no packets are shown the sender has not sent any weather packets the latest 1 day(s).
| Time | Temp. | Humidity | Pressure | Rain* | Wind** | Luminosity | Snow |
|---|---|---|---|---|---|---|---|
| 1778101621 | 18.33° C | 99% | 1012.2 hPa | 0 mm | - | 58 W/m² | - |
| 1778101318 | 18.33° C | 99% | 1011.9 hPa | 0 mm | - | 142 W/m² | - |
| 1778099803 | 17.78° C | 99% | 1013 hPa | 4.83 mm | - | 22 W/m² | - |
| 1778098287 | 17.22° C | 99% | 1013 hPa | 4.83 mm | - | 23 W/m² | - |
| 1778095863 | 18.33° C | 98% | 1013.3 hPa | 1.27 mm | - | 79 W/m² | - |
| 1778094345 | 19.44° C | 91% | 1013.5 hPa | 0 mm | - | 141 W/m² | - |
| 1778088890 | 19.44° C | 90% | 1013.4 hPa | 0 mm | - | 612 W/m² | - |
| 1778088587 | 18.33° C | 96% | 1013.3 hPa | 0 mm | - | 610 W/m² | - |
| 1778088285 | 18.33° C | 97% | 1013.1 hPa | 0 mm | - | 260 W/m² | - |
| 1778085242 | 17.78° C | 99% | 1012.9 hPa | 0 mm | - | 233 W/m² | - |
| 1778084937 | 16.67° C | 99% | 1013.1 hPa | 0 mm | - | 428 W/m² | - |
| 1778084635 | 16.67° C | 99% | 1013.4 hPa | 0 mm | - | 247 W/m² | - |
| 1778083727 | 16.11° C | 99% | 1012.9 hPa | 0 mm | - | 96 W/m² | - |
| 1778083123 | 16.11° C | 99% | 1014.3 hPa | 1.78 mm | - | 79 W/m² | - |
| 1778081696 | 16.11° C | 99% | 1015.3 hPa | 0 mm | - | 59 W/m² | - |
| 1778080789 | 15.56° C | 99% | 1014.8 hPa | 6.1 mm | - | 90 W/m² | - |
| 1778080486 | 15.56° C | 99% | 1015.2 hPa | 8.89 mm | - | 86 W/m² | - |
| 1778079879 | 15.56° C | 99% | 1014.9 hPa | 3.56 mm | - | 51 W/m² | - |
| 1778078062 | 15° C | 99% | 1013.9 hPa | 42.67 mm | - | 49 W/m² | - |
| 1778077760 | 15.56° C | 99% | 1014.1 hPa | 33.53 mm | - | 32 W/m² | - |
| 1778077458 | 15.56° C | 99% | 1014.4 hPa | 13.72 mm | - | 12 W/m² | - |
| 1778076248 | 15.56° C | 99% | 1013.1 hPa | 4.83 mm | - | 21 W/m² | - |
| 1778075945 | 15.56° C | 99% | 1012.9 hPa | 4.32 mm | - | 30 W/m² | - |
| 1778075642 | 15.56° C | 99% | 1013.1 hPa | 3.05 mm | - | 13 W/m² | - |
| 1778075338 | 15.56° C | 99% | 1013.1 hPa | 1.78 mm | - | 21 W/m² | - |
* Rain latest hour (hover to see other rain measurements)
** Current wind speed in m/s (hover to see current wind gust speed)